Spiegelgracht — PCEO — position and weather

sailwx.info

Track history (hours):
 
Tides and Currents Weather Stations Pressure Air Temp Water Temp Dewpoint Dewpoint Depression Visibility Wind Speed Wind Dir Waves Ship Positions

Spiegelgracht

Last reported at 2017-Nov-22 20:20 UTC. Time now 2017-Nov-24 16:43 UTC.
Position N 14°09' W 060°49'.

Length 168 m; beam 25 m.

Type: Cargo ship. MMSI: 245789000.

Date/timePositionNaut miles runAvg speedWind from/ knotsBaromVisibWave heightAir tempDewpointWater temp
2017-Nov-22 20:20N 14°09' W 060°49'617.2
2017-Nov-22 20:00N 14°12' W 060°53'816.8
2017-Nov-22 19:31N 14°18' W 060°60'  
2017-Nov-14 17:59N 31°34' W 079°57'24118.8
2017-Nov-14 05:09N 34°13' W 076°21'318.9
2017-Nov-14 05:00N 34°14' W 076°19'1018.9
2017-Nov-14 04:30N 34°21' W 076°10'48016.8
2017-Nov-13 00:01N 41°24' W 071°25'012.7
2017-Nov-13 00:00N 41°24' W 071°25'712.7
2017-Nov-12 23:29N 41°30' W 071°21'7 2.6
2017-Nov-12 21:02N 41°36' W 071°18'0 0.1
2017-Nov-12 20:56N 41°36' W 071°18'0 0.1
2017-Nov-12 20:26N 41°36' W 071°18'  
Track history (hours):
 
Tides and Currents Weather Stations Pressure Air Temp Water Temp Dewpoint Dewpoint Depression Visibility Wind Speed Wind Dir Waves Ship Positions

Spiegelgracht

Last reported at 2017-Nov-22 20:20 UTC. Time now 2017-Nov-24 16:43 UTC.
Position N 14°09' W 060°49'.

Length 168 m; beam 25 m.

Type: Cargo ship. MMSI: 245789000.

Date/timePositionNaut miles runAvg speedWind from/ knotsBaromVisibWave heightAir tempDewpointWater temp
2017-Nov-22 20:20N 14°09' W 060°49'617.2
2017-Nov-22 20:00N 14°12' W 060°53'816.8
2017-Nov-22 19:31N 14°18' W 060°60'  
2017-Nov-14 17:59N 31°34' W 079°57'24118.8
2017-Nov-14 05:09N 34°13' W 076°21'318.9
2017-Nov-14 05:00N 34°14' W 076°19'1018.9
2017-Nov-14 04:30N 34°21' W 076°10'48016.8
2017-Nov-13 00:01N 41°24' W 071°25'012.7
2017-Nov-13 00:00N 41°24' W 071°25'712.7
2017-Nov-12 23:29N 41°30' W 071°21'7 2.6
2017-Nov-12 21:02N 41°36' W 071°18'0 0.1
2017-Nov-12 20:56N 41°36' W 071°18'0 0.1
2017-Nov-12 20:26N 41°36' W 071°18'  

Dump ship's entire track history